sensor_id;sensor_type;location;lat;lon;timestamp;pressure;altitude;pressure_sealevel;temperature;humidity
76046;BME280;64741;41.730;44.788;2023-04-03T00:01:37;986.8;;;22.5;39.1
76046;BME280;64741;41.730;44.788;2023-04-03T00:06:32;986.8;;;22.5;39.1
76046;BME280;64741;41.730;44.788;2023-04-03T00:11:31;986.8;;;22.5;39
76046;BME280;64741;41.730;44.788;2023-04-03T00:16:35;986.7;;;22.4;38.8
76046;BME280;64741;41.730;44.788;2023-04-03T00:21:29;986.7;;;22.4;38.8
76046;BME280;64741;41.730;44.788;2023-04-03T00:26:37;986.7;;;22.4;38.9
76046;BME280;64741;41.730;44.788;2023-04-03T00:31:29;986.7;;;22.4;38.8
76046;BME280;64741;41.730;44.788;2023-04-03T00:36:29;986.8;;;22.4;38.7
76046;BME280;64741;41.730;44.788;2023-04-03T00:41:35;986.8;;;22.4;38.6
76046;BME280;64741;41.730;44.788;2023-04-03T00:46:29;986.7;;;22.4;38.7
76046;BME280;64741;41.730;44.788;2023-04-03T00:51:39;986.7;;;22.4;38.7
76046;BME280;64741;41.730;44.788;2023-04-03T00:56:31;986.7;;;22.3;38.6
76046;BME280;64741;41.730;44.788;2023-04-03T01:01:29;986.7;;;22.3;38.6
76046;BME280;64741;41.730;44.788;2023-04-03T01:06:36;986.7;;;22.3;38.7
76046;BME280;64741;41.730;44.788;2023-04-03T01:11:29;986.7;;;22.3;38.6
76046;BME280;64741;41.730;44.788;2023-04-03T01:16:37;986.7;;;22.3;38.7
76046;BME280;64741;41.730;44.788;2023-04-03T01:21:39;986.7;;;22.3;38.6
76046;BME280;64741;41.730;44.788;2023-04-03T01:26:29;986.7;;;22.3;38.5
76046;BME280;64741;41.730;44.788;2023-04-03T01:31:43;986.7;;;22.3;38.5
76046;BME280;64741;41.730;44.788;2023-04-03T01:36:30;986.7;;;22.3;38.5
76046;BME280;64741;41.730;44.788;2023-04-03T01:41:39;986.7;;;22.3;38.4
76046;BME280;64741;41.730;44.788;2023-04-03T01:46:31;986.7;;;22.3;38.4
76046;BME280;64741;41.730;44.788;2023-04-03T01:51:30;986.7;;;22.2;38.5
76046;BME280;64741;41.730;44.788;2023-04-03T01:56:35;986.7;;;22.2;38.4
76046;BME280;64741;41.730;44.788;2023-04-03T02:01:29;986.8;;;22.2;38.4
76046;BME280;64741;41.730;44.788;2023-04-03T02:06:37;986.8;;;22.2;38.3
76046;BME280;64741;41.730;44.788;2023-04-03T02:11:29;986.8;;;22.2;38.5
76046;BME280;64741;41.730;44.788;2023-04-03T02:16:31;986.9;;;22.2;38.4
76046;BME280;64741;41.730;44.788;2023-04-03T02:21:35;986.9;;;22.2;38.4
76046;BME280;64741;41.730;44.788;2023-04-03T02:26:29;986.9;;;22.2;38.4
76046;BME280;64741;41.730;44.788;2023-04-03T02:31:27;986.9;;;22.2;38.3
76046;BME280;64741;41.730;44.788;2023-04-03T02:36:29;986.9;;;22.2;38.2
76046;BME280;64741;41.730;44.788;2023-04-03T02:41:31;986.9;;;22.2;38.3
76046;BME280;64741;41.730;44.788;2023-04-03T02:46:32;986.9;;;22.2;38.3
76046;BME280;64741;41.730;44.788;2023-04-03T02:51:29;986.9;;;22.2;38.4
76046;BME280;64741;41.730;44.788;2023-04-03T02:56:16;986.9;;;22.2;38.4
76046;BME280;64741;41.730;44.788;2023-04-03T03:01:29;987;;;22.2;38.4
76046;BME280;64741;41.730;44.788;2023-04-03T03:06:29;987;;;22.2;38.4
76046;BME280;64741;41.730;44.788;2023-04-03T03:11:35;987;;;22.2;38.4
76046;BME280;64741;41.730;44.788;2023-04-03T03:16:29;987.1;;;22.1;38.3
76046;BME280;64741;41.730;44.788;2023-04-03T03:21:37;987.1;;;22.2;38.4
76046;BME280;64741;41.730;44.788;2023-04-03T03:26:31;987.1;;;22.1;38.5
76046;BME280;64741;41.730;44.788;2023-04-03T03:31:29;987.1;;;22.1;38.5
76046;BME280;64741;41.730;44.788;2023-04-03T03:36:37;987.1;;;22.1;38.5
76046;BME280;64741;41.730;44.788;2023-04-03T03:41:29;987.1;;;22.1;38.6
76046;BME280;64741;41.730;44.788;2023-04-03T03:46:27;987.1;;;22.1;38.7
76046;BME280;64741;41.730;44.788;2023-04-03T03:51:35;987.1;;;22.1;38.7
76046;BME280;64741;41.730;44.788;2023-04-03T03:56:29;987.1;;;22.1;38.6
76046;BME280;64741;41.730;44.788;2023-04-03T04:01:37;987.1;;;22.1;38.6
76046;BME280;64741;41.730;44.788;2023-04-03T04:06:29;987.1;;;22.1;38.5
76046;BME280;64741;41.730;44.788;2023-04-03T04:11:17;987.1;;;22.1;38.5
76046;BME280;64741;41.730;44.788;2023-04-03T04:16:33;987;;;22.1;38.5
76046;BME280;64741;41.730;44.788;2023-04-03T04:21:29;987;;;22.1;38.3
76046;BME280;64741;41.730;44.788;2023-04-03T04:26:35;987;;;22.1;38.4
76046;BME280;64741;41.730;44.788;2023-04-03T04:31:29;987;;;22.1;38.3
76046;BME280;64741;41.730;44.788;2023-04-03T04:36:29;987;;;22.1;38.4
76046;BME280;64741;41.730;44.788;2023-04-03T04:41:38;987;;;22.1;38.5
76046;BME280;64741;41.730;44.788;2023-04-03T04:46:29;987;;;22.1;38.6
76046;BME280;64741;41.730;44.788;2023-04-03T04:51:39;987;;;22.2;38.7
76046;BME280;64741;41.730;44.788;2023-04-03T04:56:15;986.9;;;22.1;38.6
76046;BME280;64741;41.730;44.788;2023-04-03T05:01:29;987;;;22.2;38.5
76046;BME280;64741;41.730;44.788;2023-04-03T05:06:37;987;;;22.2;38.6
76046;BME280;64741;41.730;44.788;2023-04-03T05:11:29;987;;;22.2;38.4
76046;BME280;64741;41.730;44.788;2023-04-03T05:16:38;986.9;;;22.2;38.3
76046;BME280;64741;41.730;44.788;2023-04-03T05:21:29;986.9;;;22.2;38.6
76046;BME280;64741;41.730;44.788;2023-04-03T05:26:31;986.9;;;22.2;38.7
76046;BME280;64741;41.730;44.788;2023-04-03T05:31:37;986.9;;;22.2;38.8
76046;BME280;64741;41.730;44.788;2023-04-03T05:36:29;987;;;22.2;38.7
76046;BME280;64741;41.730;44.788;2023-04-03T05:41:39;986.9;;;22.2;38.7
76046;BME280;64741;41.730;44.788;2023-04-03T05:46:29;986.9;;;22.2;38.7
76046;BME280;64741;41.730;44.788;2023-04-03T05:51:33;986.9;;;22.2;38.8
76046;BME280;64741;41.730;44.788;2023-04-03T05:56:37;986.9;;;22.2;38.8
76046;BME280;64741;41.730;44.788;2023-04-03T06:01:29;987;;;22.2;38.6
76046;BME280;64741;41.730;44.788;2023-04-03T06:06:46;986.9;;;22.2;38.6
76046;BME280;64741;41.730;44.788;2023-04-03T06:11:29;986.8;;;22.2;38.5
76046;BME280;64741;41.730;44.788;2023-04-03T06:15:51;986.8;;;22.2;38.4
76046;BME280;64741;41.730;44.788;2023-04-03T06:21:35;986.8;;;22.2;38.4
76046;BME280;64741;41.730;44.788;2023-04-03T06:26:29;986.7;;;22.2;38.5
76046;BME280;64741;41.730;44.788;2023-04-03T06:31:37;986.7;;;22.2;38.5
76046;BME280;64741;41.730;44.788;2023-04-03T06:36:21;986.6;;;22.2;38.7
76046;BME280;64741;41.730;44.788;2023-04-03T06:41:28;986.6;;;22.2;39
76046;BME280;64741;41.730;44.788;2023-04-03T06:46:33;986.6;;;22.2;39.1
76046;BME280;64741;41.730;44.788;2023-04-03T06:51:30;986.6;;;22.2;39.3
76046;BME280;64741;41.730;44.788;2023-04-03T06:56:36;986.7;;;22.2;39.4
76046;BME280;64741;41.730;44.788;2023-04-03T07:01:30;986.7;;;22.3;39.3
76046;BME280;64741;41.730;44.788;2023-04-03T07:06:32;986.7;;;22.3;39.3
76046;BME280;64741;41.730;44.788;2023-04-03T07:11:38;986.7;;;22.3;39.3
76046;BME280;64741;41.730;44.788;2023-04-03T07:16:15;986.6;;;22.4;39.3
76046;BME280;64741;41.730;44.788;2023-04-03T07:21:38;986.6;;;22.4;39.4
76046;BME280;64741;41.730;44.788;2023-04-03T07:26:30;986.5;;;22.4;39.5
76046;BME280;64741;41.730;44.788;2023-04-03T07:31:28;986.4;;;22.4;39.6
76046;BME280;64741;41.730;44.788;2023-04-03T07:36:34;986.3;;;22.4;39.8
76046;BME280;64741;41.730;44.788;2023-04-03T07:41:30;986.3;;;22.4;39.9
76046;BME280;64741;41.730;44.788;2023-04-03T07:46:38;986.3;;;22.4;39.8
76046;BME280;64741;41.730;44.788;2023-04-03T07:51:30;986.2;;;22.5;39.8
76046;BME280;64741;41.730;44.788;2023-04-03T07:56:30;986.1;;;22.5;39.8
76046;BME280;64741;41.730;44.788;2023-04-03T08:01:34;986;;;22.5;39.7
76046;BME280;64741;41.730;44.788;2023-04-03T08:06:36;986;;;22.5;39.6
76046;BME280;64741;41.730;44.788;2023-04-03T08:11:38;985.8;;;22.5;39.5
76046;BME280;64741;41.730;44.788;2023-04-03T08:16:30;985.8;;;22.5;39.3
76046;BME280;64741;41.730;44.788;2023-04-03T08:21:38;985.8;;;22.5;39.3
76046;BME280;64741;41.730;44.788;2023-04-03T08:26:30;985.9;;;22.5;39.2
76046;BME280;64741;41.730;44.788;2023-04-03T08:31:38;985.9;;;22.6;39.1
76046;BME280;64741;41.730;44.788;2023-04-03T08:36:30;986;;;22.6;39.1
76046;BME280;64741;41.730;44.788;2023-04-03T08:41:33;986;;;22.6;39.1
76046;BME280;64741;41.730;44.788;2023-04-03T08:46:40;986;;;22.7;39.8
76046;BME280;64741;41.730;44.788;2023-04-03T08:51:28;986.1;;;22.7;41.3
76046;BME280;64741;41.730;44.788;2023-04-03T08:56:08;986.1;;;22.8;42
76046;BME280;64741;41.730;44.788;2023-04-03T09:01:36;986.1;;;22.8;42.5
76046;BME280;64741;41.730;44.788;2023-04-03T09:06:31;986.1;;;22.8;42.2
76046;BME280;64741;41.730;44.788;2023-04-03T09:11:41;986.1;;;22.8;41.9
76046;BME280;64741;41.730;44.788;2023-04-03T09:16:33;986;;;22.8;41.7
76046;BME280;64741;41.730;44.788;2023-04-03T09:21:38;986;;;22.9;41.5
76046;BME280;64741;41.730;44.788;2023-04-03T09:26:36;986;;;22.9;41.1
76046;BME280;64741;41.730;44.788;2023-04-03T09:31:31;985.9;;;22.9;40.6
76046;BME280;64741;41.730;44.788;2023-04-03T09:36:37;986;;;22.9;40.1
76046;BME280;64741;41.730;44.788;2023-04-03T09:41:30;985.9;;;22.9;39.8
76046;BME280;64741;41.730;44.788;2023-04-03T09:46:38;985.9;;;22.9;39.6
76046;BME280;64741;41.730;44.788;2023-04-03T09:51:24;985.8;;;22.9;39.3
76046;BME280;64741;41.730;44.788;2023-04-03T09:56:19;985.8;;;22.9;39.1
76046;BME280;64741;41.730;44.788;2023-04-03T10:01:39;985.8;;;22.9;39.1
76046;BME280;64741;41.730;44.788;2023-04-03T10:06:31;985.7;;;22.9;38.9
76046;BME280;64741;41.730;44.788;2023-04-03T10:11:40;985.7;;;22.9;38.7
76046;BME280;64741;41.730;44.788;2023-04-03T10:16:36;985.7;;;22.9;38.7
76046;BME280;64741;41.730;44.788;2023-04-03T10:21:33;985.6;;;22.9;38.6
76046;BME280;64741;41.730;44.788;2023-04-03T10:26:43;985.6;;;22.8;38.7
76046;BME280;64741;41.730;44.788;2023-04-03T10:31:33;985.6;;;22.8;38.8
76046;BME280;64741;41.730;44.788;2023-04-03T10:36:41;985.6;;;22.8;38.9
76046;BME280;64741;41.730;44.788;2023-04-03T10:41:37;985.6;;;22.8;39
76046;BME280;64741;41.730;44.788;2023-04-03T10:46:33;985.6;;;22.8;39
76046;BME280;64741;41.730;44.788;2023-04-03T10:51:28;985.5;;;22.8;39
76046;BME280;64741;41.730;44.788;2023-04-03T10:56:34;985.5;;;22.8;38.9
76046;BME280;64741;41.730;44.788;2023-04-03T11:01:40;985.6;;;22.8;39
76046;BME280;64741;41.730;44.788;2023-04-03T11:06:37;985.6;;;22.8;38.9
76046;BME280;64741;41.730;44.788;2023-04-03T11:11:34;985.5;;;22.8;38.9
76046;BME280;64741;41.730;44.788;2023-04-03T11:16:42;985.5;;;22.8;38.9
76046;BME280;64741;41.730;44.788;2023-04-03T11:21:33;985.5;;;22.8;39
76046;BME280;64741;41.730;44.788;2023-04-03T11:26:40;985.5;;;22.8;39
76046;BME280;64741;41.730;44.788;2023-04-03T11:31:39;985.5;;;22.8;39
76046;BME280;64741;41.730;44.788;2023-04-03T11:36:34;985.4;;;22.8;39.1
76046;BME280;64741;41.730;44.788;2023-04-03T11:41:40;985.4;;;22.8;39.1
76046;BME280;64741;41.730;44.788;2023-04-03T11:47:03;985.4;;;22.8;39.2
76046;BME280;64741;41.730;44.788;2023-04-03T11:51:41;985.4;;;22.8;39.3
76046;BME280;64741;41.730;44.788;2023-04-03T11:56:36;985.3;;;22.8;39.5
76046;BME280;64741;41.730;44.788;2023-04-03T12:01:50;985.3;;;22.8;40.2
76046;BME280;64741;41.730;44.788;2023-04-03T12:06:47;985.4;;;22.8;41.2
76046;BME280;64741;41.730;44.788;2023-04-03T12:11:32;985.4;;;22.9;42.2
76046;BME280;64741;41.730;44.788;2023-04-03T12:16:42;985.4;;;22.9;43.2
76046;BME280;64741;41.730;44.788;2023-04-03T12:22:22;985.5;;;22.9;43.9
76046;BME280;64741;41.730;44.788;2023-04-03T12:26:36;985.5;;;22.9;43.7
76046;BME280;64741;41.730;44.788;2023-04-03T12:31:40;985.6;;;23;43
76046;BME280;64741;41.730;44.788;2023-04-03T12:36:33;985.7;;;23;42.7
76046;BME280;64741;41.730;44.788;2023-04-03T12:41:42;985.7;;;23;42.5
76046;BME280;64741;41.730;44.788;2023-04-03T12:46:37;985.8;;;23;42.2
76046;BME280;64741;41.730;44.788;2023-04-03T12:51:34;985.8;;;23;42.1
76046;BME280;64741;41.730;44.788;2023-04-03T12:56:36;985.9;;;23;41.9
76046;BME280;64741;41.730;44.788;2023-04-03T13:01:32;986;;;23;41.8
76046;BME280;64741;41.730;44.788;2023-04-03T13:06:41;986;;;23;41.8
76046;BME280;64741;41.730;44.788;2023-04-03T13:11:36;986.1;;;23;41.8
76046;BME280;64741;41.730;44.788;2023-04-03T13:16:30;986.3;;;23;41.9
76046;BME280;64741;41.730;44.788;2023-04-03T13:21:36;986.4;;;23;41.9
76046;BME280;64741;41.730;44.788;2023-04-03T13:26:32;986.6;;;23;41.7
76046;BME280;64741;41.730;44.788;2023-04-03T13:31:38;986.8;;;23;41.5
76046;BME280;64741;41.730;44.788;2023-04-03T13:36:36;986.9;;;23;41.2
76046;BME280;64741;41.730;44.788;2023-04-03T13:41:35;987;;;22.9;41.2
76046;BME280;64741;41.730;44.788;2023-04-03T13:46:36;987.2;;;22.9;40.9
76046;BME280;64741;41.730;44.788;2023-04-03T13:51:34;987.3;;;22.9;41.1
76046;BME280;64741;41.730;44.788;2023-04-03T13:56:42;987.5;;;23;41.5
76046;BME280;64741;41.730;44.788;2023-04-03T14:01:43;987.7;;;23;42.5
76046;BME280;64741;41.730;44.788;2023-04-03T14:05:56;987.7;;;23;42.8
76046;BME280;64741;41.730;44.788;2023-04-03T14:11:36;987.9;;;23;43.2
76046;BME280;64741;41.730;44.788;2023-04-03T14:16:37;987.9;;;23;43.5
76046;BME280;64741;41.730;44.788;2023-04-03T14:21:42;988;;;23;43.8
76046;BME280;64741;41.730;44.788;2023-04-03T14:26:36;988.2;;;23;44.9
76046;BME280;64741;41.730;44.788;2023-04-03T14:31:34;988.5;;;23;46.2
76046;BME280;64741;41.730;44.788;2023-04-03T14:36:36;988.8;;;23.1;47.1
76046;BME280;64741;41.730;44.788;2023-04-03T14:41:34;988.9;;;23.1;47.3
76046;BME280;64741;41.730;44.788;2023-04-03T14:46:42;989.1;;;23.1;48
76046;BME280;64741;41.730;44.788;2023-04-03T14:51:36;989.2;;;23.2;47.8
76046;BME280;64741;41.730;44.788;2023-04-03T14:56:31;989.4;;;23.2;47.6
76046;BME280;64741;41.730;44.788;2023-04-03T15:01:34;989.5;;;23.2;47.2
76046;BME280;64741;41.730;44.788;2023-04-03T15:06:42;989.6;;;23.2;46.9
76046;BME280;64741;41.730;44.788;2023-04-03T15:11:34;989.6;;;23.2;46.5
76046;BME280;64741;41.730;44.788;2023-04-03T15:16:28;989.6;;;23.2;46.3
76046;BME280;64741;41.730;44.788;2023-04-03T15:21:36;989.4;;;23.2;46.3
76046;BME280;64741;41.730;44.788;2023-04-03T15:26:34;989.5;;;23.2;45.9
76046;BME280;64741;41.730;44.788;2023-04-03T15:31:36;989.6;;;23.2;45.7
76046;BME280;64741;41.730;44.788;2023-04-03T15:36:32;989.5;;;23.2;45.4
76046;BME280;64741;41.730;44.788;2023-04-03T15:41:45;989.6;;;23.2;45.1
76046;BME280;64741;41.730;44.788;2023-04-03T15:46:37;989.6;;;23.2;44.9
76046;BME280;64741;41.730;44.788;2023-04-03T15:51:32;989.7;;;23.2;44.8
76046;BME280;64741;41.730;44.788;2023-04-03T15:56:36;989.7;;;23.3;44.6
76046;BME280;64741;41.730;44.788;2023-04-03T16:01:34;989.8;;;23.3;44.3
76046;BME280;64741;41.730;44.788;2023-04-03T16:06:42;989.9;;;23.2;44.1
76046;BME280;64741;41.730;44.788;2023-04-03T16:11:32;990.1;;;23.2;44
76046;BME280;64741;41.730;44.788;2023-04-03T16:16:34;990.2;;;23.3;43.8
76046;BME280;64741;41.730;44.788;2023-04-03T16:21:38;990.3;;;23.2;43.8
76046;BME280;64741;41.730;44.788;2023-04-03T16:26:36;990.4;;;23.2;43.6
76046;BME280;64741;41.730;44.788;2023-04-03T16:31:44;990.5;;;23.2;43.4
76046;BME280;64741;41.730;44.788;2023-04-03T16:36:34;990.6;;;23.2;43.4
76046;BME280;64741;41.730;44.788;2023-04-03T16:41:36;990.7;;;23.2;43.3
76046;BME280;64741;41.730;44.788;2023-04-03T16:46:38;990.8;;;23.2;43.3
76046;BME280;64741;41.730;44.788;2023-04-03T16:51:36;990.9;;;23.2;43.2
76046;BME280;64741;41.730;44.788;2023-04-03T16:56:44;990.9;;;23.1;43.2
76046;BME280;64741;41.730;44.788;2023-04-03T17:01:34;990.9;;;23.1;43.1
76046;BME280;64741;41.730;44.788;2023-04-03T17:06:37;991;;;23.1;43.1
76046;BME280;64741;41.730;44.788;2023-04-03T17:11:38;991;;;23.1;43
76046;BME280;64741;41.730;44.788;2023-04-03T17:16:36;991;;;23.1;43
76046;BME280;64741;41.730;44.788;2023-04-03T17:21:16;991.1;;;23.1;43
76046;BME280;64741;41.730;44.788;2023-04-03T17:26:34;991.1;;;23;43
76046;BME280;64741;41.730;44.788;2023-04-03T17:31:44;991.2;;;23;43
76046;BME280;64741;41.730;44.788;2023-04-03T17:36:38;991.1;;;23;43
76046;BME280;64741;41.730;44.788;2023-04-03T17:41:36;991;;;23;43
76046;BME280;64741;41.730;44.788;2023-04-03T17:46:42;991;;;23;42.9
76046;BME280;64741;41.730;44.788;2023-04-03T17:51:34;990.9;;;23;43
76046;BME280;64741;41.730;44.788;2023-04-03T17:56:44;990.8;;;23;42.9
76046;BME280;64741;41.730;44.788;2023-04-03T18:01:38;990.9;;;23;42.9
76046;BME280;64741;41.730;44.788;2023-04-03T18:06:37;990.9;;;23;42.8
76046;BME280;64741;41.730;44.788;2023-04-03T18:11:42;990.9;;;23;42.8
76046;BME280;64741;41.730;44.788;2023-04-03T18:16:30;990.8;;;22.9;42.8
76046;BME280;64741;41.730;44.788;2023-04-03T18:21:42;990.8;;;22.9;42.8
76046;BME280;64741;41.730;44.788;2023-04-03T18:26:36;990.9;;;22.9;42.8
76046;BME280;64741;41.730;44.788;2023-04-03T18:31:36;991;;;22.9;42.7
76046;BME280;64741;41.730;44.788;2023-04-03T18:36:42;991;;;22.9;42.7
76046;BME280;64741;41.730;44.788;2023-04-03T18:41:34;991.1;;;22.9;42.7
76046;BME280;64741;41.730;44.788;2023-04-03T18:46:44;991.1;;;22.9;42.7
76046;BME280;64741;41.730;44.788;2023-04-03T18:51:38;991.1;;;22.9;42.8
76046;BME280;64741;41.730;44.788;2023-04-03T18:56:36;991;;;22.9;42.7
76046;BME280;64741;41.730;44.788;2023-04-03T19:01:32;991;;;22.9;42.7
76046;BME280;64741;41.730;44.788;2023-04-03T19:06:34;991;;;22.9;42.7
76046;BME280;64741;41.730;44.788;2023-04-03T19:11:44;991;;;22.9;42.7
76046;BME280;64741;41.730;44.788;2023-04-03T19:16:38;991;;;22.9;42.6
76046;BME280;64741;41.730;44.788;2023-04-03T19:21:36;991;;;22.9;42.6
76046;BME280;64741;41.730;44.788;2023-04-03T19:26:44;991;;;22.8;42.6
76046;BME280;64741;41.730;44.788;2023-04-03T19:31:34;991.1;;;22.8;42.5
76046;BME280;64741;41.730;44.788;2023-04-03T19:36:44;991.2;;;22.8;42.4
76046;BME280;64741;41.730;44.788;2023-04-03T19:41:38;991.2;;;22.8;42.4
76046;BME280;64741;41.730;44.788;2023-04-03T19:46:36;991.2;;;22.8;42.4
76046;BME280;64741;41.730;44.788;2023-04-03T19:51:42;991.2;;;22.8;42.3
76046;BME280;64741;41.730;44.788;2023-04-03T19:56:34;991.2;;;22.8;42.3
76046;BME280;64741;41.730;44.788;2023-04-03T20:00:52;991.2;;;22.8;42.2
76046;BME280;64741;41.730;44.788;2023-04-03T20:06:38;991.3;;;22.8;42.2
76046;BME280;64741;41.730;44.788;2023-04-03T20:11:36;991.3;;;22.8;42.2
76046;BME280;64741;41.730;44.788;2023-04-03T20:16:44;991.3;;;22.8;42.1
76046;BME280;64741;41.730;44.788;2023-04-03T20:21:28;991.3;;;22.7;42.1
76046;BME280;64741;41.730;44.788;2023-04-03T20:26:44;991.3;;;22.7;42.1
76046;BME280;64741;41.730;44.788;2023-04-03T20:31:38;991.3;;;22.7;42.1
76046;BME280;64741;41.730;44.788;2023-04-03T20:36:36;991.3;;;22.7;42.1
76046;BME280;64741;41.730;44.788;2023-04-03T20:41:44;991.3;;;22.7;42
76046;BME280;64741;41.730;44.788;2023-04-03T20:46:34;991.4;;;22.7;42
76046;BME280;64741;41.730;44.788;2023-04-03T20:51:44;991.4;;;22.7;42
76046;BME280;64741;41.730;44.788;2023-04-03T20:56:38;991.6;;;22.7;42
76046;BME280;64741;41.730;44.788;2023-04-03T21:01:36;991.7;;;22.7;42
76046;BME280;64741;41.730;44.788;2023-04-03T21:21:38;991.8;;;22.7;41.9
76046;BME280;64741;41.730;44.788;2023-04-03T21:26:37;991.8;;;22.7;41.9
76046;BME280;64741;41.730;44.788;2023-04-03T21:31:22;991.9;;;22.7;41.9
76046;BME280;64741;41.730;44.788;2023-04-03T21:36:38;991.9;;;22.7;41.9
76046;BME280;64741;41.730;44.788;2023-04-03T21:41:44;991.9;;;22.7;41.9
76046;BME280;64741;41.730;44.788;2023-04-03T21:46:38;992;;;22.6;41.9
76046;BME280;64741;41.730;44.788;2023-04-03T21:51:36;992;;;22.6;42
76046;BME280;64741;41.730;44.788;2023-04-03T21:56:38;992;;;22.6;42.3
76046;BME280;64741;41.730;44.788;2023-04-03T22:01:34;992;;;22.6;42.2
76046;BME280;64741;41.730;44.788;2023-04-03T22:06:44;992;;;22.6;42.1
76046;BME280;64741;41.730;44.788;2023-04-03T22:11:38;992;;;22.6;42
76046;BME280;64741;41.730;44.788;2023-04-03T22:16:34;992;;;22.6;42
76046;BME280;64741;41.730;44.788;2023-04-03T22:21:36;992;;;22.6;41.9
76046;BME280;64741;41.730;44.788;2023-04-03T22:26:34;992.1;;;22.7;41.9
76046;BME280;64741;41.730;44.788;2023-04-03T22:31:44;992.1;;;22.7;42.1
76046;BME280;64741;41.730;44.788;2023-04-03T22:36:38;992.1;;;22.7;42
76046;BME280;64741;41.730;44.788;2023-04-03T22:41:34;992.1;;;22.7;41.9
76046;BME280;64741;41.730;44.788;2023-04-03T22:46:38;992.1;;;22.7;42.1
76046;BME280;64741;41.730;44.788;2023-04-03T22:51:34;992.1;;;22.7;42
76046;BME280;64741;41.730;44.788;2023-04-03T22:56:44;992.1;;;22.7;42
76046;BME280;64741;41.730;44.788;2023-04-03T23:01:36;992.1;;;22.7;42
76046;BME280;64741;41.730;44.788;2023-04-03T23:06:34;992.1;;;22.7;42
76046;BME280;64741;41.730;44.788;2023-04-03T23:11:36;992.1;;;22.7;42
76046;BME280;64741;41.730;44.788;2023-04-03T23:16:34;992.1;;;22.7;42.1
76046;BME280;64741;41.730;44.788;2023-04-03T23:21:42;992.1;;;22.7;42.1
76046;BME280;64741;41.730;44.788;2023-04-03T23:25:52;992.2;;;22.7;42.2
76046;BME280;64741;41.730;44.788;2023-04-03T23:31:32;992.2;;;22.7;42.3
76046;BME280;64741;41.730;44.788;2023-04-03T23:36:34;992.2;;;22.7;42.2
76046;BME280;64741;41.730;44.788;2023-04-03T23:41:32;992.2;;;22.7;42.1
76046;BME280;64741;41.730;44.788;2023-04-03T23:46:38;992.2;;;22.7;42
76046;BME280;64741;41.730;44.788;2023-04-03T23:51:32;992.2;;;22.7;42.1
76046;BME280;64741;41.730;44.788;2023-04-03T23:56:31;992.2;;;22.7;42.1
